Terminal Aerodrome Forecast
Issued by NWS Memphis, TN

Home | Current Version | Previous Version | Text Only | Print | Product List | Glossary On
Versions: 1 2 3 4 5 6 7 8 9 10 11 12 13
000
FTUS44 KMEG 040523
TAFJBR
TAF
KJBR 040523Z 0406/0506 17006KT P6SM FEW250
     FM041500 20012KT P6SM SCT060 SCT250
     FM050100 16003KT P6SM SCT060=

USA.gov is the U.S. government's official web portal to all federal, state and local government web resources and services.